Time;durP1;ratioP1;P1;durP2;ratioP2;P2;SDS_P1;SDS_P2;PMS_P1;PMS_P2;Temp;Humidity;BMP_temperature;BMP_pressure;BME280_temperature;BME280_humidity;BME280_pressure;Samples;Min_cycle;Max_cycle;Signal;HPM_P1;HPM_P2
2022/01/24 00:01:22;;;;;;;13.40;9.00;;;;;;;-2.53;71.02;94944.06;833506;71;32789;-81
2022/01/24 00:16:25;;;;;;;11.75;7.75;;;;;;;-2.61;71.45;94957.09;822718;71;32847;-82
2022/01/24 00:31:14;;;;;;;14.60;8.85;;;;;;;-2.60;72.17;94957.38;826881;71;33534;-84
2022/01/24 00:46:19;;;;;;;15.20;8.50;;;;;;;-2.60;72.33;94973.28;827362;71;30305;-84
2022/01/24 01:01:15;;;;;;;13.75;9.30;;;;;;;-2.63;71.86;94971.91;833756;71;32837;-84
2022/01/24 01:31:17;;;;;;;11.35;8.93;;;;;;;-2.62;71.60;94967.05;833707;71;30293;-82
2022/01/24 02:01:14;;;;;;;15.35;10.80;;;;;;;-2.71;71.64;94973.36;833583;71;32808;-83
2022/01/24 02:16:33;;;;;;;15.00;9.10;;;;;;;-2.81;71.44;94972.43;827821;71;33095;-84
2022/01/24 03:01:09;;;;;;;15.95;10.53;;;;;;;-2.85;71.63;95000.26;821058;71;29791;-84
2022/01/24 03:16:09;;;;;;;16.73;11.30;;;;;;;-2.85;71.67;95013.59;820609;71;29788;-84
2022/01/24 03:31:19;;;;;;;17.95;11.20;;;;;;;-2.80;71.74;95027.13;822146;71;32851;-83
2022/01/24 04:01:15;;;;;;;14.90;10.72;;;;;;;-2.70;71.71;95050.19;820730;71;32435;-82
2022/01/24 04:16:27;;;;;;;16.60;10.75;;;;;;;-2.68;71.52;95079.53;828046;71;29300;-83
2022/01/24 04:31:17;;;;;;;20.30;12.53;;;;;;;-2.76;70.94;95086.11;833528;71;31837;-82
2022/01/24 05:01:14;;;;;;;15.72;9.90;;;;;;;-4.20;71.98;95129.40;827161;71;31755;-83
2022/01/24 05:31:15;;;;;;;16.12;10.58;;;;;;;-4.21;72.44;95182.91;827813;71;31834;-84
2022/01/24 05:46:17;;;;;;;18.82;11.28;;;;;;;-4.04;71.62;95204.77;801740;74;31874;-85
2022/01/24 06:01:15;;;;;;;15.78;9.60;;;;;;;-3.87;69.82;95223.33;794573;74;32317;-88
2022/01/24 06:16:12;;;;;;;10.38;7.53;;;;;;;-4.40;67.92;95264.89;830168;70;31001;-84
2022/01/24 06:31:09;;;;;;;8.85;6.30;;;;;;;-4.18;68.00;95272.69;826300;70;29162;-77
2022/01/24 06:46:14;;;;;;;9.00;6.55;;;;;;;-3.87;64.34;95284.06;817593;71;31859;-77
2022/01/24 07:01:18;;;;;;;14.38;8.75;;;;;;;-3.69;63.92;95281.91;828850;71;31724;-77
2022/01/24 07:16:09;;;;;;;20.92;10.95;;;;;;;-3.40;63.27;95300.78;822286;71;29380;-76
2022/01/24 07:31:20;;;;;;;8.45;6.20;;;;;;;-3.04;59.88;95314.89;833119;71;32286;-78
2022/01/24 07:46:08;;;;;;;12.80;6.85;;;;;;;-3.06;60.01;95332.25;833494;71;28667;-78
2022/01/24 08:01:09;;;;;;;10.35;7.80;;;;;;;-3.59;60.78;95352.13;833430;71;28674;-78
2022/01/24 08:16:09;;;;;;;11.97;7.78;;;;;;;-3.49;62.71;95366.79;820770;71;29761;-79
2022/01/24 08:31:16;;;;;;;13.43;8.85;;;;;;;-2.96;62.51;95385.86;826694;71;32783;-77
2022/01/24 08:46:10;;;;;;;10.03;6.80;;;;;;;-2.99;61.03;95402.89;827743;71;30273;-76
2022/01/24 09:16:10;;;;;;;12.15;7.70;;;;;;;-3.02;62.23;95407.91;831700;71;30343;-76
2022/01/24 09:31:10;;;;;;;12.37;8.05;;;;;;;-2.43;61.63;95414.64;825673;71;30519;-77
2022/01/24 09:46:15;;;;;;;11.12;6.97;;;;;;;-1.32;54.26;95397.31;826837;71;32760;-78
2022/01/24 10:01:23;;;;;;;;;;;;;;;;;;;;;
2022/01/24 10:16:46;;;;;;;;;;;;;;;;;;;;;
2022/01/24 10:31:13;;;;;;;12.93;7.90;;;;;;;-1.98;52.06;95372.50;835852;70;30004;-83
2022/01/24 11:16:18;;;;;;;7.35;5.53;;;;;;;-2.63;51.71;95408.02;833868;71;32750;-83
2022/01/24 11:46:47;;;;;;;10.98;6.95;;;;;;;-3.35;54.80;95402.85;827479;71;32697;-80
2022/01/24 12:31:21;;;;;;;6.92;5.22;;;;;;;-4.87;54.94;95419.50;828059;71;29747;-80
2022/01/24 13:01:29;;;;;;;12.88;8.15;;;;;;;-2.29;67.34;95425.03;833241;71;29410;-77
2022/01/24 13:31:10;;;;;;;9.93;7.05;;;;;;;-2.38;55.29;95437.21;833789;71;29744;-80
2022/01/24 13:46:19;;;;;;;15.32;8.45;;;;;;;-3.85;54.41;95450.01;826386;71;33177;-78
2022/01/24 14:01:09;;;;;;;11.88;8.30;;;;;;;-4.16;54.78;95462.90;827409;71;29703;-78
2022/01/24 14:16:47;;;;;;;14.25;7.92;;;;;;;-4.09;55.60;95486.39;826371;71;33150;-79
2022/01/24 14:31:18;;;;;;;15.83;9.85;;;;;;;-4.38;57.44;95495.22;829518;70;33478;-76
2022/01/24 14:46:18;;;;;;;12.35;8.05;;;;;;;-4.73;57.37;95499.89;834198;71;33173;-77
2022/01/24 15:01:18;;;;;;;17.90;9.50;;;;;;;-4.96;60.95;95526.22;785670;74;31477;-79
2022/01/24 15:16:27;;;;;;;17.30;10.88;;;;;;;-5.34;66.22;95543.09;827680;71;30190;-79
2022/01/24 15:31:23;;;;;;;17.98;10.58;;;;;;;-5.33;67.33;95539.56;828357;71;29718;-81
2022/01/24 16:01:23;;;;;;;20.85;10.95;;;;;;;-5.68;70.77;95574.30;822962;71;33431;-80
2022/01/24 16:16:12;;;;;;;18.75;11.05;;;;;;;-6.29;68.50;95506.56;796199;73;32257;-85
2022/01/24 16:31:11;;;;;;;17.27;10.95;;;;;;;-5.67;68.16;95605.75;827962;71;30336;-84
2022/01/24 17:01:15;;;;;;;27.20;14.03;;;;;;;-5.68;66.47;95630.98;795475;72;30556;-84
2022/01/24 17:16:15;;;;;;;23.92;12.53;;;;;;;-5.75;65.40;95639.77;835699;70;32752;-85
